Contact Us:
Email: info@sawbill.com
Phone: (218)663-7150
Fax: (218)663-7980
Mail: 4620 Sawbill Trail
Box 2129
Tofte, MN 55615


Powered by
Movable Type 3.15
 
Sawbill Weather History Archives: September 2012
Current Sawbill Weather History | « August 2012 | October 2012 »


Date

High
Temperature

Low
Temperature

Barometric
Pressure

Relative
Humidity 7AM

9 AM
Temperature

Moisture

Snow

9/30/12 61 35 30.15 86% 43 0
9/29/12 64 35 30.39 68% 35 0
9/28/12 65 41 30.47 76% 43 0
9/27/12 59 32 30.50 74% 41 0
9/26/12 52 32 30.50 69% 32 0
9/25/12 48 33 30.39 81% 38 Trace
9/24/12 59 34 30.24 64% 34 0
9/23/12 49 38 30.06 43% 48 0
9/22/12 45 37 30.47 78% 38 .03"
9/21/12 51 37 30.30 83% 37 .25"
9/20/12 52 43 30.09 85% 43 .09"
9/19/12 58 41 30.00 92% 44 .23"
9/18/12 49 33 29.94 93% 41 .11"
9/17/12 50 37 30.21 74% 38 Trace
9/16/12 70 44 30.24 65% 47 0
9/15/12 62 37 30.15 72% 44 0
9/14/12 57 36 30.50 73% 37 0
9/13/12 60 43 30.53 86% 47 0
9/12/12 63 47 30.42 57% 47 0
9/11/12 71 51 30.21 47% 56 Trace
9/10/12 68 42 30.06 79% 51 0
9/9/12 61 41 30.27 78% 42 0
9/8/12 54 48 30.33 91% 48 .15"
9/7/12 59 46 30.06 90% 48 .1"
9/6/12 66 49 30.15 87% 50 0
9/5/12 68 48 30.09 82% 49 .02"
9/4/12 79 53 30.00 82% 59 .23"
9/3/12 79 56 30.12 77% 57 0
9/2/12 75 50 30.12 90% 62 Trace
9/1/12 80 48 30.18 93% 50 0
 


Home I Trip Planning I Rentals and Outfitting I Reservations I Campgrounds I Sawbill Store I Sawbill News I Contact

© 1997 - 2017, Sawbill Canoe Outfitters, Inc. I Privacy Policy